sensor_id;sensor_type;location;lat;lon;timestamp;P1;durP1;ratioP1;P2;durP2;ratioP2
4021;SDS011;2025;48.260;16.432;2022-08-19T00:00:16;12.32;;;4.35;;
4021;SDS011;2025;48.260;16.432;2022-08-19T00:02:44;9.13;;;4.55;;
4021;SDS011;2025;48.260;16.432;2022-08-19T00:05:12;7.70;;;3.85;;
4021;SDS011;2025;48.260;16.432;2022-08-19T00:07:40;13.75;;;4.90;;
4021;SDS011;2025;48.260;16.432;2022-08-19T00:10:10;10.70;;;4.25;;
4021;SDS011;2025;48.260;16.432;2022-08-19T00:12:39;6.50;;;3.97;;
4021;SDS011;2025;48.260;16.432;2022-08-19T00:15:08;12.90;;;4.15;;
4021;SDS011;2025;48.260;16.432;2022-08-19T00:17:38;13.90;;;4.28;;
4021;SDS011;2025;48.260;16.432;2022-08-19T00:20:06;14.48;;;5.38;;
4021;SDS011;2025;48.260;16.432;2022-08-19T00:22:35;15.43;;;5.20;;
4021;SDS011;2025;48.260;16.432;2022-08-19T00:25:03;10.95;;;4.93;;
4021;SDS011;2025;48.260;16.432;2022-08-19T00:27:32;11.02;;;4.72;;
4021;SDS011;2025;48.260;16.432;2022-08-19T00:29:59;13.70;;;5.20;;
4021;SDS011;2025;48.260;16.432;2022-08-19T00:32:28;16.70;;;5.03;;
4021;SDS011;2025;48.260;16.432;2022-08-19T00:34:55;10.43;;;4.95;;
4021;SDS011;2025;48.260;16.432;2022-08-19T00:37:23;22.20;;;5.72;;
4021;SDS011;2025;48.260;16.432;2022-08-19T00:39:51;10.57;;;4.75;;
4021;SDS011;2025;48.260;16.432;2022-08-19T00:42:19;14.20;;;4.97;;
4021;SDS011;2025;48.260;16.432;2022-08-19T00:44:48;12.05;;;5.25;;
4021;SDS011;2025;48.260;16.432;2022-08-19T00:47:16;17.52;;;5.28;;
4021;SDS011;2025;48.260;16.432;2022-08-19T00:49:45;11.50;;;4.80;;
4021;SDS011;2025;48.260;16.432;2022-08-19T00:52:17;13.77;;;5.00;;
4021;SDS011;2025;48.260;16.432;2022-08-19T00:54:48;7.10;;;4.78;;
4021;SDS011;2025;48.260;16.432;2022-08-19T00:57:18;11.90;;;4.80;;
4021;SDS011;2025;48.260;16.432;2022-08-19T00:59:52;8.70;;;4.68;;
4021;SDS011;2025;48.260;16.432;2022-08-19T01:04:48;6.18;;;4.28;;
4021;SDS011;2025;48.260;16.432;2022-08-19T01:07:15;12.00;;;4.65;;
4021;SDS011;2025;48.260;16.432;2022-08-19T01:09:43;7.00;;;4.40;;
4021;SDS011;2025;48.260;16.432;2022-08-19T01:12:10;9.05;;;4.30;;
4021;SDS011;2025;48.260;16.432;2022-08-19T01:14:37;5.75;;;3.90;;
4021;SDS011;2025;48.260;16.432;2022-08-19T01:17:08;8.52;;;4.45;;
4021;SDS011;2025;48.260;16.432;2022-08-19T01:19:36;10.05;;;4.15;;
4021;SDS011;2025;48.260;16.432;2022-08-19T01:22:06;9.30;;;4.30;;
4021;SDS011;2025;48.260;16.432;2022-08-19T01:24:39;6.47;;;4.10;;
4021;SDS011;2025;48.260;16.432;2022-08-19T01:27:06;7.35;;;4.57;;
4021;SDS011;2025;48.260;16.432;2022-08-19T01:29:34;16.17;;;4.13;;
4021;SDS011;2025;48.260;16.432;2022-08-19T01:32:05;10.68;;;4.25;;
4021;SDS011;2025;48.260;16.432;2022-08-19T01:34:32;13.02;;;4.50;;
4021;SDS011;2025;48.260;16.432;2022-08-19T01:37:00;7.35;;;4.00;;
4021;SDS011;2025;48.260;16.432;2022-08-19T01:39:36;11.75;;;4.97;;
4021;SDS011;2025;48.260;16.432;2022-08-19T01:42:06;5.57;;;3.60;;
4021;SDS011;2025;48.260;16.432;2022-08-19T01:44:36;8.07;;;3.97;;
4021;SDS011;2025;48.260;16.432;2022-08-19T01:47:03;9.50;;;4.07;;
4021;SDS011;2025;48.260;16.432;2022-08-19T01:49:31;10.13;;;4.53;;
4021;SDS011;2025;48.260;16.432;2022-08-19T01:51:59;17.52;;;4.38;;
4021;SDS011;2025;48.260;16.432;2022-08-19T01:54:26;8.25;;;4.20;;
4021;SDS011;2025;48.260;16.432;2022-08-19T01:56:55;5.85;;;3.60;;
4021;SDS011;2025;48.260;16.432;2022-08-19T01:59:27;7.07;;;3.83;;
4021;SDS011;2025;48.260;16.432;2022-08-19T02:01:56;7.43;;;3.67;;
4021;SDS011;2025;48.260;16.432;2022-08-19T02:04:23;10.98;;;3.95;;
4021;SDS011;2025;48.260;16.432;2022-08-19T02:06:50;7.80;;;3.63;;
4021;SDS011;2025;48.260;16.432;2022-08-19T02:09:18;9.95;;;3.83;;
4021;SDS011;2025;48.260;16.432;2022-08-19T02:11:45;5.45;;;3.55;;
4021;SDS011;2025;48.260;16.432;2022-08-19T02:14:12;10.15;;;4.10;;
4021;SDS011;2025;48.260;16.432;2022-08-19T02:16:40;6.32;;;3.40;;
4021;SDS011;2025;48.260;16.432;2022-08-19T02:19:07;9.82;;;3.72;;
4021;SDS011;2025;48.260;16.432;2022-08-19T02:21:35;10.40;;;3.95;;
4021;SDS011;2025;48.260;16.432;2022-08-19T02:24:03;9.73;;;3.47;;
4021;SDS011;2025;48.260;16.432;2022-08-19T02:26:31;12.55;;;3.50;;
4021;SDS011;2025;48.260;16.432;2022-08-19T02:28:58;6.57;;;3.55;;
4021;SDS011;2025;48.260;16.432;2022-08-19T02:31:25;8.93;;;3.53;;
4021;SDS011;2025;48.260;16.432;2022-08-19T02:33:55;8.65;;;3.83;;
4021;SDS011;2025;48.260;16.432;2022-08-19T02:36:23;7.53;;;3.58;;
4021;SDS011;2025;48.260;16.432;2022-08-19T02:38:51;9.13;;;3.20;;
4021;SDS011;2025;48.260;16.432;2022-08-19T02:41:18;9.18;;;3.50;;
4021;SDS011;2025;48.260;16.432;2022-08-19T02:43:46;5.45;;;3.88;;
4021;SDS011;2025;48.260;16.432;2022-08-19T02:46:15;8.77;;;3.75;;
4021;SDS011;2025;48.260;16.432;2022-08-19T02:48:46;12.55;;;3.67;;
4021;SDS011;2025;48.260;16.432;2022-08-19T02:51:19;9.82;;;3.90;;
4021;SDS011;2025;48.260;16.432;2022-08-19T02:53:48;6.65;;;3.67;;
4021;SDS011;2025;48.260;16.432;2022-08-19T02:56:15;8.45;;;3.65;;
4021;SDS011;2025;48.260;16.432;2022-08-19T02:58:42;6.90;;;2.92;;
4021;SDS011;2025;48.260;16.432;2022-08-19T03:01:10;5.85;;;3.60;;
4021;SDS011;2025;48.260;16.432;2022-08-19T03:03:45;6.82;;;3.55;;
4021;SDS011;2025;48.260;16.432;2022-08-19T03:06:13;5.82;;;3.35;;
4021;SDS011;2025;48.260;16.432;2022-08-19T03:08:44;7.85;;;3.35;;
4021;SDS011;2025;48.260;16.432;2022-08-19T03:11:12;9.48;;;3.90;;
4021;SDS011;2025;48.260;16.432;2022-08-19T03:13:40;7.80;;;3.58;;
4021;SDS011;2025;48.260;16.432;2022-08-19T03:16:08;11.68;;;3.55;;
4021;SDS011;2025;48.260;16.432;2022-08-19T03:18:36;4.40;;;3.60;;
4021;SDS011;2025;48.260;16.432;2022-08-19T03:21:04;5.50;;;3.70;;
4021;SDS011;2025;48.260;16.432;2022-08-19T03:23:31;7.03;;;4.10;;
4021;SDS011;2025;48.260;16.432;2022-08-19T03:26:02;6.97;;;3.92;;
4021;SDS011;2025;48.260;16.432;2022-08-19T03:28:31;6.18;;;3.75;;
4021;SDS011;2025;48.260;16.432;2022-08-19T03:31:00;4.35;;;3.58;;
4021;SDS011;2025;48.260;16.432;2022-08-19T03:33:28;6.93;;;3.90;;
4021;SDS011;2025;48.260;16.432;2022-08-19T03:36:07;7.22;;;3.70;;
4021;SDS011;2025;48.260;16.432;2022-08-19T03:38:36;9.73;;;3.97;;
4021;SDS011;2025;48.260;16.432;2022-08-19T03:41:06;6.53;;;4.00;;
4021;SDS011;2025;48.260;16.432;2022-08-19T03:46:04;9.23;;;4.07;;
4021;SDS011;2025;48.260;16.432;2022-08-19T03:48:32;14.63;;;4.25;;
4021;SDS011;2025;48.260;16.432;2022-08-19T03:51:01;7.80;;;4.40;;
4021;SDS011;2025;48.260;16.432;2022-08-19T03:53:29;4.20;;;3.50;;
4021;SDS011;2025;48.260;16.432;2022-08-19T03:55:57;6.68;;;3.80;;
4021;SDS011;2025;48.260;16.432;2022-08-19T03:58:26;6.70;;;3.72;;
4021;SDS011;2025;48.260;16.432;2022-08-19T04:00:55;7.10;;;3.90;;
4021;SDS011;2025;48.260;16.432;2022-08-19T04:03:23;8.57;;;4.13;;
4021;SDS011;2025;48.260;16.432;2022-08-19T04:05:52;10.98;;;4.30;;
4021;SDS011;2025;48.260;16.432;2022-08-19T04:08:19;5.22;;;4.32;;
4021;SDS011;2025;48.260;16.432;2022-08-19T04:10:47;12.40;;;4.38;;
4021;SDS011;2025;48.260;16.432;2022-08-19T04:13:15;9.57;;;3.92;;
4021;SDS011;2025;48.260;16.432;2022-08-19T04:15:45;11.63;;;3.85;;
4021;SDS011;2025;48.260;16.432;2022-08-19T04:18:13;9.90;;;4.55;;
4021;SDS011;2025;48.260;16.432;2022-08-19T04:20:41;7.25;;;4.30;;
4021;SDS011;2025;48.260;16.432;2022-08-19T04:23:10;9.60;;;4.63;;
4021;SDS011;2025;48.260;16.432;2022-08-19T04:25:38;13.07;;;4.75;;
4021;SDS011;2025;48.260;16.432;2022-08-19T04:28:07;9.75;;;4.63;;
4021;SDS011;2025;48.260;16.432;2022-08-19T04:30:38;8.00;;;4.47;;
4021;SDS011;2025;48.260;16.432;2022-08-19T04:33:09;8.65;;;4.43;;
4021;SDS011;2025;48.260;16.432;2022-08-19T04:35:37;11.23;;;4.80;;
4021;SDS011;2025;48.260;16.432;2022-08-19T04:38:05;8.60;;;4.93;;
4021;SDS011;2025;48.260;16.432;2022-08-19T04:40:33;6.90;;;4.35;;
4021;SDS011;2025;48.260;16.432;2022-08-19T04:43:23;11.65;;;4.57;;
4021;SDS011;2025;48.260;16.432;2022-08-19T04:45:50;11.00;;;4.20;;
4021;SDS011;2025;48.260;16.432;2022-08-19T04:48:19;13.93;;;5.30;;
4021;SDS011;2025;48.260;16.432;2022-08-19T04:50:51;12.57;;;5.15;;
4021;SDS011;2025;48.260;16.432;2022-08-19T04:55:49;16.05;;;5.43;;
4021;SDS011;2025;48.260;16.432;2022-08-19T04:58:17;11.13;;;5.40;;
4021;SDS011;2025;48.260;16.432;2022-08-19T05:00:45;10.13;;;5.82;;
4021;SDS011;2025;48.260;16.432;2022-08-19T05:03:12;12.07;;;5.72;;
4021;SDS011;2025;48.260;16.432;2022-08-19T05:05:43;9.18;;;6.05;;
4021;SDS011;2025;48.260;16.432;2022-08-19T05:08:14;15.18;;;5.82;;
4021;SDS011;2025;48.260;16.432;2022-08-19T05:10:45;15.95;;;6.85;;
4021;SDS011;2025;48.260;16.432;2022-08-19T05:13:13;12.73;;;6.00;;
4021;SDS011;2025;48.260;16.432;2022-08-19T05:15:41;8.80;;;5.70;;
4021;SDS011;2025;48.260;16.432;2022-08-19T05:18:08;8.00;;;6.00;;
4021;SDS011;2025;48.260;16.432;2022-08-19T05:20:54;6.97;;;5.57;;
4021;SDS011;2025;48.260;16.432;2022-08-19T05:23:38;13.88;;;6.05;;
4021;SDS011;2025;48.260;16.432;2022-08-19T05:26:06;9.38;;;6.40;;
4021;SDS011;2025;48.260;16.432;2022-08-19T05:28:34;11.48;;;6.53;;
4021;SDS011;2025;48.260;16.432;2022-08-19T05:31:01;9.27;;;6.13;;
4021;SDS011;2025;48.260;16.432;2022-08-19T05:33:28;9.82;;;6.40;;
4021;SDS011;2025;48.260;16.432;2022-08-19T05:35:58;11.23;;;6.90;;
4021;SDS011;2025;48.260;16.432;2022-08-19T05:38:25;16.80;;;6.95;;
4021;SDS011;2025;48.260;16.432;2022-08-19T05:40:52;8.60;;;7.03;;
4021;SDS011;2025;48.260;16.432;2022-08-19T05:43:19;8.73;;;7.85;;
4021;SDS011;2025;48.260;16.432;2022-08-19T05:45:46;8.85;;;6.57;;
4021;SDS011;2025;48.260;16.432;2022-08-19T05:48:15;8.13;;;7.55;;
4021;SDS011;2025;48.260;16.432;2022-08-19T05:50:45;8.00;;;6.53;;
4021;SDS011;2025;48.260;16.432;2022-08-19T05:53:16;9.07;;;6.72;;
4021;SDS011;2025;48.260;16.432;2022-08-19T05:55:44;12.50;;;7.68;;
4021;SDS011;2025;48.260;16.432;2022-08-19T05:58:11;8.63;;;6.30;;
4021;SDS011;2025;48.260;16.432;2022-08-19T06:00:38;9.88;;;7.93;;
4021;SDS011;2025;48.260;16.432;2022-08-19T06:03:05;10.27;;;8.05;;
4021;SDS011;2025;48.260;16.432;2022-08-19T06:05:32;9.65;;;6.97;;
4021;SDS011;2025;48.260;16.432;2022-08-19T06:07:59;14.63;;;6.45;;
4021;SDS011;2025;48.260;16.432;2022-08-19T06:10:28;7.80;;;6.55;;
4021;SDS011;2025;48.260;16.432;2022-08-19T06:12:55;8.10;;;6.75;;
4021;SDS011;2025;48.260;16.432;2022-08-19T06:15:22;10.15;;;6.05;;
4021;SDS011;2025;48.260;16.432;2022-08-19T06:17:53;7.73;;;5.83;;
4021;SDS011;2025;48.260;16.432;2022-08-19T06:20:20;8.32;;;6.32;;
4021;SDS011;2025;48.260;16.432;2022-08-19T06:22:47;6.53;;;5.93;;
4021;SDS011;2025;48.260;16.432;2022-08-19T06:25:16;7.95;;;6.18;;
4021;SDS011;2025;48.260;16.432;2022-08-19T06:27:45;6.55;;;5.97;;
4021;SDS011;2025;48.260;16.432;2022-08-19T06:30:12;15.20;;;6.15;;
4021;SDS011;2025;48.260;16.432;2022-08-19T06:32:40;8.00;;;5.85;;
4021;SDS011;2025;48.260;16.432;2022-08-19T06:35:07;10.85;;;5.90;;
4021;SDS011;2025;48.260;16.432;2022-08-19T06:37:35;7.03;;;5.82;;
4021;SDS011;2025;48.260;16.432;2022-08-19T06:40:04;5.78;;;5.47;;
4021;SDS011;2025;48.260;16.432;2022-08-19T06:42:33;9.70;;;5.78;;
4021;SDS011;2025;48.260;16.432;2022-08-19T06:45:01;7.20;;;5.47;;
4021;SDS011;2025;48.260;16.432;2022-08-19T06:47:29;10.85;;;5.85;;
4021;SDS011;2025;48.260;16.432;2022-08-19T06:49:58;6.63;;;5.80;;
4021;SDS011;2025;48.260;16.432;2022-08-19T06:52:27;6.22;;;5.63;;
4021;SDS011;2025;48.260;16.432;2022-08-19T06:54:54;10.57;;;5.38;;
4021;SDS011;2025;48.260;16.432;2022-08-19T06:57:23;5.75;;;5.32;;
4021;SDS011;2025;48.260;16.432;2022-08-19T06:59:50;7.53;;;5.45;;
4021;SDS011;2025;48.260;16.432;2022-08-19T07:02:19;6.47;;;5.90;;
4021;SDS011;2025;48.260;16.432;2022-08-19T07:04:51;12.10;;;5.88;;
4021;SDS011;2025;48.260;16.432;2022-08-19T07:07:18;6.20;;;5.57;;
4021;SDS011;2025;48.260;16.432;2022-08-19T07:09:48;5.68;;;5.07;;
4021;SDS011;2025;48.260;16.432;2022-08-19T07:12:18;7.45;;;5.30;;
4021;SDS011;2025;48.260;16.432;2022-08-19T07:14:45;9.27;;;5.40;;
4021;SDS011;2025;48.260;16.432;2022-08-19T07:17:12;8.90;;;5.05;;
4021;SDS011;2025;48.260;16.432;2022-08-19T07:19:41;11.32;;;4.88;;
4021;SDS011;2025;48.260;16.432;2022-08-19T07:22:09;5.97;;;4.95;;
4021;SDS011;2025;48.260;16.432;2022-08-19T07:24:37;9.63;;;5.43;;
4021;SDS011;2025;48.260;16.432;2022-08-19T07:27:04;5.10;;;4.70;;
4021;SDS011;2025;48.260;16.432;2022-08-19T07:29:33;10.07;;;4.95;;
4021;SDS011;2025;48.260;16.432;2022-08-19T07:32:02;5.63;;;4.50;;
4021;SDS011;2025;48.260;16.432;2022-08-19T07:34:31;5.57;;;4.88;;
4021;SDS011;2025;48.260;16.432;2022-08-19T07:37:04;9.65;;;4.78;;
4021;SDS011;2025;48.260;16.432;2022-08-19T07:39:33;5.95;;;4.55;;
4021;SDS011;2025;48.260;16.432;2022-08-19T07:42:03;5.40;;;4.50;;
4021;SDS011;2025;48.260;16.432;2022-08-19T07:44:32;9.90;;;4.60;;
4021;SDS011;2025;48.260;16.432;2022-08-19T07:47:00;9.85;;;5.18;;
4021;SDS011;2025;48.260;16.432;2022-08-19T07:49:28;4.60;;;4.18;;
4021;SDS011;2025;48.260;16.432;2022-08-19T07:51:56;12.27;;;5.00;;
4021;SDS011;2025;48.260;16.432;2022-08-19T07:54:28;5.15;;;4.68;;
4021;SDS011;2025;48.260;16.432;2022-08-19T07:56:58;4.68;;;4.28;;
4021;SDS011;2025;48.260;16.432;2022-08-19T07:59:25;5.07;;;4.60;;
4021;SDS011;2025;48.260;16.432;2022-08-19T08:01:54;7.22;;;4.63;;
4021;SDS011;2025;48.260;16.432;2022-08-19T08:04:22;6.97;;;4.57;;
4021;SDS011;2025;48.260;16.432;2022-08-19T08:07:07;6.20;;;4.25;;
4021;SDS011;2025;48.260;16.432;2022-08-19T08:09:53;8.93;;;4.68;;
4021;SDS011;2025;48.260;16.432;2022-08-19T08:12:22;10.25;;;4.28;;
4021;SDS011;2025;48.260;16.432;2022-08-19T08:14:54;4.65;;;4.20;;
4021;SDS011;2025;48.260;16.432;2022-08-19T08:17:23;9.52;;;4.63;;
4021;SDS011;2025;48.260;16.432;2022-08-19T08:19:52;6.25;;;4.63;;
4021;SDS011;2025;48.260;16.432;2022-08-19T08:22:21;9.00;;;4.07;;
4021;SDS011;2025;48.260;16.432;2022-08-19T08:25:08;8.25;;;4.53;;
4021;SDS011;2025;48.260;16.432;2022-08-19T08:27:37;5.55;;;4.25;;
4021;SDS011;2025;48.260;16.432;2022-08-19T08:30:06;8.43;;;4.43;;
4021;SDS011;2025;48.260;16.432;2022-08-19T08:32:35;8.77;;;4.03;;
4021;SDS011;2025;48.260;16.432;2022-08-19T08:35:03;8.10;;;3.70;;
4021;SDS011;2025;48.260;16.432;2022-08-19T08:37:30;10.93;;;4.35;;
4021;SDS011;2025;48.260;16.432;2022-08-19T08:39:57;10.02;;;3.65;;
4021;SDS011;2025;48.260;16.432;2022-08-19T08:42:28;12.38;;;4.50;;
4021;SDS011;2025;48.260;16.432;2022-08-19T08:44:59;7.10;;;3.78;;
4021;SDS011;2025;48.260;16.432;2022-08-19T08:47:34;8.07;;;3.78;;
4021;SDS011;2025;48.260;16.432;2022-08-19T08:50:06;7.45;;;3.58;;
4021;SDS011;2025;48.260;16.432;2022-08-19T08:52:41;8.15;;;3.13;;
4021;SDS011;2025;48.260;16.432;2022-08-19T08:55:13;6.13;;;3.20;;
4021;SDS011;2025;48.260;16.432;2022-08-19T08:57:49;10.77;;;3.35;;
4021;SDS011;2025;48.260;16.432;2022-08-19T09:00:21;5.85;;;3.50;;
4021;SDS011;2025;48.260;16.432;2022-08-19T09:02:51;11.23;;;3.05;;
4021;SDS011;2025;48.260;16.432;2022-08-19T09:05:19;13.45;;;3.95;;
4021;SDS011;2025;48.260;16.432;2022-08-19T09:07:49;5.13;;;3.28;;
4021;SDS011;2025;48.260;16.432;2022-08-19T09:10:28;10.45;;;3.35;;
4021;SDS011;2025;48.260;16.432;2022-08-19T09:13:01;6.72;;;2.97;;
4021;SDS011;2025;48.260;16.432;2022-08-19T09:15:40;8.70;;;3.73;;
4021;SDS011;2025;48.260;16.432;2022-08-19T09:18:11;9.32;;;3.58;;
4021;SDS011;2025;48.260;16.432;2022-08-19T09:20:38;7.60;;;3.65;;
4021;SDS011;2025;48.260;16.432;2022-08-19T09:23:05;8.63;;;3.55;;
4021;SDS011;2025;48.260;16.432;2022-08-19T09:25:33;6.28;;;3.50;;
4021;SDS011;2025;48.260;16.432;2022-08-19T09:28:02;8.50;;;3.55;;
4021;SDS011;2025;48.260;16.432;2022-08-19T09:30:30;10.30;;;3.50;;
4021;SDS011;2025;48.260;16.432;2022-08-19T09:32:59;8.07;;;3.60;;
4021;SDS011;2025;48.260;16.432;2022-08-19T09:35:27;8.07;;;3.28;;
4021;SDS011;2025;48.260;16.432;2022-08-19T09:37:55;8.18;;;3.40;;
4021;SDS011;2025;48.260;16.432;2022-08-19T09:40:23;9.65;;;3.63;;
4021;SDS011;2025;48.260;16.432;2022-08-19T09:42:51;9.75;;;3.70;;
4021;SDS011;2025;48.260;16.432;2022-08-19T09:45:20;10.82;;;3.80;;
4021;SDS011;2025;48.260;16.432;2022-08-19T09:47:48;5.10;;;3.58;;
4021;SDS011;2025;48.260;16.432;2022-08-19T09:50:16;14.40;;;4.05;;
4021;SDS011;2025;48.260;16.432;2022-08-19T09:52:43;5.88;;;3.35;;
4021;SDS011;2025;48.260;16.432;2022-08-19T09:55:11;8.30;;;3.88;;
4021;SDS011;2025;48.260;16.432;2022-08-19T09:57:38;11.63;;;3.40;;
4021;SDS011;2025;48.260;16.432;2022-08-19T10:00:06;16.65;;;3.60;;
4021;SDS011;2025;48.260;16.432;2022-08-19T10:02:36;12.30;;;3.60;;
4021;SDS011;2025;48.260;16.432;2022-08-19T10:05:04;9.70;;;3.28;;
4021;SDS011;2025;48.260;16.432;2022-08-19T10:07:49;10.90;;;3.97;;
4021;SDS011;2025;48.260;16.432;2022-08-19T10:10:16;9.32;;;3.55;;
4021;SDS011;2025;48.260;16.432;2022-08-19T10:12:44;13.43;;;4.32;;
4021;SDS011;2025;48.260;16.432;2022-08-19T10:15:12;31.80;;;4.30;;
4021;SDS011;2025;48.260;16.432;2022-08-19T10:17:41;10.13;;;3.45;;
4021;SDS011;2025;48.260;16.432;2022-08-19T10:20:09;9.10;;;3.63;;
4021;SDS011;2025;48.260;16.432;2022-08-19T10:22:36;15.75;;;3.38;;
4021;SDS011;2025;48.260;16.432;2022-08-19T10:25:04;16.88;;;3.95;;
4021;SDS011;2025;48.260;16.432;2022-08-19T10:27:32;12.70;;;3.45;;
4021;SDS011;2025;48.260;16.432;2022-08-19T10:30:00;18.58;;;3.63;;
4021;SDS011;2025;48.260;16.432;2022-08-19T10:32:27;11.50;;;3.50;;
4021;SDS011;2025;48.260;16.432;2022-08-19T10:34:56;9.75;;;3.60;;
4021;SDS011;2025;48.260;16.432;2022-08-19T10:37:23;10.35;;;3.58;;
4021;SDS011;2025;48.260;16.432;2022-08-19T10:39:50;13.10;;;3.92;;
4021;SDS011;2025;48.260;16.432;2022-08-19T10:42:17;17.10;;;3.50;;
4021;SDS011;2025;48.260;16.432;2022-08-19T10:44:45;15.55;;;4.30;;
4021;SDS011;2025;48.260;16.432;2022-08-19T10:47:13;15.23;;;4.28;;
4021;SDS011;2025;48.260;16.432;2022-08-19T10:49:40;11.13;;;3.75;;
4021;SDS011;2025;48.260;16.432;2022-08-19T10:52:22;8.75;;;3.75;;
4021;SDS011;2025;48.260;16.432;2022-08-19T10:55:02;15.00;;;4.05;;
4021;SDS011;2025;48.260;16.432;2022-08-19T10:57:48;9.15;;;3.75;;
4021;SDS011;2025;48.260;16.432;2022-08-19T11:00:17;19.17;;;4.32;;
4021;SDS011;2025;48.260;16.432;2022-08-19T11:02:45;18.05;;;3.72;;
4021;SDS011;2025;48.260;16.432;2022-08-19T11:05:12;9.88;;;3.55;;
4021;SDS011;2025;48.260;16.432;2022-08-19T11:07:41;8.60;;;4.00;;
4021;SDS011;2025;48.260;16.432;2022-08-19T11:10:10;10.93;;;3.88;;
4021;SDS011;2025;48.260;16.432;2022-08-19T11:12:38;13.07;;;4.10;;
4021;SDS011;2025;48.260;16.432;2022-08-19T11:15:07;9.75;;;4.20;;
4021;SDS011;2025;48.260;16.432;2022-08-19T11:17:36;17.92;;;4.78;;
4021;SDS011;2025;48.260;16.432;2022-08-19T11:20:09;12.45;;;5.32;;
4021;SDS011;2025;48.260;16.432;2022-08-19T11:22:37;11.38;;;4.40;;
4021;SDS011;2025;48.260;16.432;2022-08-19T11:25:07;12.32;;;5.50;;
4021;SDS011;2025;48.260;16.432;2022-08-19T11:27:37;14.98;;;6.32;;
4021;SDS011;2025;48.260;16.432;2022-08-19T11:30:07;14.02;;;6.05;;
4021;SDS011;2025;48.260;16.432;2022-08-19T11:32:35;15.63;;;6.28;;
4021;SDS011;2025;48.260;16.432;2022-08-19T11:35:02;13.07;;;6.63;;
4021;SDS011;2025;48.260;16.432;2022-08-19T11:37:29;13.57;;;5.85;;
4021;SDS011;2025;48.260;16.432;2022-08-19T11:39:56;12.50;;;4.97;;
4021;SDS011;2025;48.260;16.432;2022-08-19T11:42:25;14.00;;;4.78;;
4021;SDS011;2025;48.260;16.432;2022-08-19T11:45:09;16.42;;;4.50;;
4021;SDS011;2025;48.260;16.432;2022-08-19T11:47:37;17.00;;;4.57;;
4021;SDS011;2025;48.260;16.432;2022-08-19T11:50:05;12.00;;;3.28;;
4021;SDS011;2025;48.260;16.432;2022-08-19T11:52:32;14.38;;;3.55;;
4021;SDS011;2025;48.260;16.432;2022-08-19T11:54:59;15.23;;;3.78;;
4021;SDS011;2025;48.260;16.432;2022-08-19T11:57:28;11.77;;;4.47;;
4021;SDS011;2025;48.260;16.432;2022-08-19T11:59:55;15.70;;;3.95;;
4021;SDS011;2025;48.260;16.432;2022-08-19T12:02:22;27.98;;;5.38;;
4021;SDS011;2025;48.260;16.432;2022-08-19T12:04:49;13.07;;;4.00;;
4021;SDS011;2025;48.260;16.432;2022-08-19T12:07:16;14.80;;;4.15;;
4021;SDS011;2025;48.260;16.432;2022-08-19T12:09:43;13.23;;;3.72;;
4021;SDS011;2025;48.260;16.432;2022-08-19T12:12:11;14.15;;;4.32;;
4021;SDS011;2025;48.260;16.432;2022-08-19T12:14:39;9.75;;;4.57;;
4021;SDS011;2025;48.260;16.432;2022-08-19T12:17:06;13.70;;;4.28;;
4021;SDS011;2025;48.260;16.432;2022-08-19T12:19:35;11.82;;;4.20;;
4021;SDS011;2025;48.260;16.432;2022-08-19T12:22:02;12.95;;;4.60;;
4021;SDS011;2025;48.260;16.432;2022-08-19T12:24:31;10.32;;;4.50;;
4021;SDS011;2025;48.260;16.432;2022-08-19T12:26:59;10.90;;;4.35;;
4021;SDS011;2025;48.260;16.432;2022-08-19T12:29:26;12.13;;;4.20;;
4021;SDS011;2025;48.260;16.432;2022-08-19T12:31:56;10.13;;;4.28;;
4021;SDS011;2025;48.260;16.432;2022-08-19T12:34:26;16.35;;;4.65;;
4021;SDS011;2025;48.260;16.432;2022-08-19T12:36:55;10.10;;;4.28;;
4021;SDS011;2025;48.260;16.432;2022-08-19T12:39:23;11.65;;;4.10;;
4021;SDS011;2025;48.260;16.432;2022-08-19T12:41:50;13.23;;;4.03;;
4021;SDS011;2025;48.260;16.432;2022-08-19T12:44:17;11.68;;;3.83;;
4021;SDS011;2025;48.260;16.432;2022-08-19T12:46:44;13.68;;;4.35;;
4021;SDS011;2025;48.260;16.432;2022-08-19T12:49:13;14.18;;;4.30;;
4021;SDS011;2025;48.260;16.432;2022-08-19T12:51:40;11.52;;;3.75;;
4021;SDS011;2025;48.260;16.432;2022-08-19T12:54:08;10.30;;;4.13;;
4021;SDS011;2025;48.260;16.432;2022-08-19T12:56:35;7.75;;;3.67;;
4021;SDS011;2025;48.260;16.432;2022-08-19T12:59:03;11.98;;;4.10;;
4021;SDS011;2025;48.260;16.432;2022-08-19T13:01:32;10.73;;;3.90;;
4021;SDS011;2025;48.260;16.432;2022-08-19T13:03:59;13.18;;;4.20;;
4021;SDS011;2025;48.260;16.432;2022-08-19T13:06:28;10.10;;;3.75;;
4021;SDS011;2025;48.260;16.432;2022-08-19T13:08:55;14.35;;;4.10;;
4021;SDS011;2025;48.260;16.432;2022-08-19T13:11:23;19.75;;;10.93;;
4021;SDS011;2025;48.260;16.432;2022-08-19T13:13:50;9.02;;;4.18;;
4021;SDS011;2025;48.260;16.432;2022-08-19T13:16:20;28.85;;;4.53;;
4021;SDS011;2025;48.260;16.432;2022-08-19T13:18:48;18.02;;;4.47;;
4021;SDS011;2025;48.260;16.432;2022-08-19T13:21:17;19.50;;;4.03;;
4021;SDS011;2025;48.260;16.432;2022-08-19T13:23:47;14.55;;;3.90;;
4021;SDS011;2025;48.260;16.432;2022-08-19T13:26:15;20.85;;;4.32;;
4021;SDS011;2025;48.260;16.432;2022-08-19T13:28:43;13.38;;;4.22;;
4021;SDS011;2025;48.260;16.432;2022-08-19T13:31:29;15.05;;;4.05;;
4021;SDS011;2025;48.260;16.432;2022-08-19T13:34:15;14.05;;;4.60;;
4021;SDS011;2025;48.260;16.432;2022-08-19T13:36:44;14.95;;;4.68;;
4021;SDS011;2025;48.260;16.432;2022-08-19T13:39:13;11.60;;;3.95;;
4021;SDS011;2025;48.260;16.432;2022-08-19T13:41:43;10.57;;;4.10;;
4021;SDS011;2025;48.260;16.432;2022-08-19T13:44:13;12.43;;;4.07;;
4021;SDS011;2025;48.260;16.432;2022-08-19T13:46:42;19.40;;;3.88;;
4021;SDS011;2025;48.260;16.432;2022-08-19T13:49:10;13.98;;;4.13;;
4021;SDS011;2025;48.260;16.432;2022-08-19T13:51:38;10.77;;;4.20;;
4021;SDS011;2025;48.260;16.432;2022-08-19T13:54:05;13.15;;;3.97;;
4021;SDS011;2025;48.260;16.432;2022-08-19T13:56:35;18.65;;;3.92;;
4021;SDS011;2025;48.260;16.432;2022-08-19T13:59:05;15.88;;;3.78;;
4021;SDS011;2025;48.260;16.432;2022-08-19T14:01:33;13.38;;;3.88;;
4021;SDS011;2025;48.260;16.432;2022-08-19T14:04:00;11.20;;;3.95;;
4021;SDS011;2025;48.260;16.432;2022-08-19T14:06:27;14.98;;;3.65;;
4021;SDS011;2025;48.260;16.432;2022-08-19T14:08:54;11.90;;;3.70;;
4021;SDS011;2025;48.260;16.432;2022-08-19T14:11:21;10.45;;;3.90;;
4021;SDS011;2025;48.260;16.432;2022-08-19T14:13:50;17.17;;;4.05;;
4021;SDS011;2025;48.260;16.432;2022-08-19T14:16:17;15.02;;;3.85;;
4021;SDS011;2025;48.260;16.432;2022-08-19T14:18:44;18.70;;;3.97;;
4021;SDS011;2025;48.260;16.432;2022-08-19T14:21:14;16.63;;;4.60;;
4021;SDS011;2025;48.260;16.432;2022-08-19T14:23:42;16.60;;;3.83;;
4021;SDS011;2025;48.260;16.432;2022-08-19T14:26:11;14.27;;;3.80;;
4021;SDS011;2025;48.260;16.432;2022-08-19T14:28:40;8.68;;;4.20;;
4021;SDS011;2025;48.260;16.432;2022-08-19T14:31:09;14.50;;;3.90;;
4021;SDS011;2025;48.260;16.432;2022-08-19T14:33:37;12.63;;;3.85;;
4021;SDS011;2025;48.260;16.432;2022-08-19T14:36:04;16.95;;;4.55;;
4021;SDS011;2025;48.260;16.432;2022-08-19T14:38:31;9.00;;;3.72;;
4021;SDS011;2025;48.260;16.432;2022-08-19T14:41:08;12.57;;;4.53;;
4021;SDS011;2025;48.260;16.432;2022-08-19T14:43:37;21.63;;;4.40;;
4021;SDS011;2025;48.260;16.432;2022-08-19T14:46:04;14.10;;;3.70;;
4021;SDS011;2025;48.260;16.432;2022-08-19T14:48:33;16.63;;;4.05;;
4021;SDS011;2025;48.260;16.432;2022-08-19T14:51:02;17.77;;;3.78;;
4021;SDS011;2025;48.260;16.432;2022-08-19T14:53:39;13.07;;;3.80;;
4021;SDS011;2025;48.260;16.432;2022-08-19T14:56:15;12.93;;;3.47;;
4021;SDS011;2025;48.260;16.432;2022-08-19T14:58:44;18.98;;;4.10;;
4021;SDS011;2025;48.260;16.432;2022-08-19T15:01:11;18.73;;;4.63;;
4021;SDS011;2025;48.260;16.432;2022-08-19T15:03:41;14.93;;;3.45;;
4021;SDS011;2025;48.260;16.432;2022-08-19T15:06:08;9.10;;;3.33;;
4021;SDS011;2025;48.260;16.432;2022-08-19T15:08:36;9.93;;;3.20;;
4021;SDS011;2025;48.260;16.432;2022-08-19T15:11:07;8.13;;;3.05;;
4021;SDS011;2025;48.260;16.432;2022-08-19T15:13:35;12.05;;;3.47;;